Pagina principală
METAR-TAF:

METAR-TAF

Aeroporturi :

Laurel, Mississippi, Statele Unite ale Americii

Latitudine: 31-40-23N, longitudine: 089-10-22W, elevație: 73 m

Observații meteo curente

Raportul a fost făcut în urmă cu 31 de minute, la 21:15 UTC
Vânt calm
Temperatură 35°C
Umiditate 37%
Presiune 1016 hPa
Vizibilitate: 16.1 km
Cer senin

METAR: KLUL 222115Z AUTO 00000KT 10SM CLR 35/18 A2999 RMK A02 T03460178

Ora: 16:46 (21:46 UTC)


TAF: lipsă

Observații și prognoze meteo pentru peste 4.000 de aeroporturi (rapoarte METAR și TAF).

Stațiile disponibile sunt reprezentate pe hartă prin puncte galbene și roșii.

Țineți indicatorul mouse-ului pe punctul dorit pentru a vedea denumirea stației.

Apoi, faceți clic pentru a vedea observațiile și prognozele meteorologice.

Pentru a schimba harta: Pentru mărire, faceți clic pe butoanele verzi cu cruce neagră; pentru micșorare, pe butonul verde cu o liniuță; pentru hărți învecinate, pe săgețile verzi.


METAR-TAF: